Accueil
METAR-TAF:

METAR-TAF

Aéroports :

Aéroport Agen-La Garenne

Agen, France

latitude: 44-11N, longitude: 000-36E, altitude: 61 m

Observation

Le bulletin a été fait il y a 31 minutes, à 15:00 UTC
Vent 11 kt de ouest/nord-ouest
Température 5°C
Humidité 75%
Pression 1022 hPa
Visibilité 10 km ou plus
Quelques nuages à une hauteur de 1900 ft
Ciel couvert à une hauteur de 4800 ft

METAR: LFBA 211500Z AUTO 29011KT 9999 FEW019 OVC048 05/01 Q1022 TEMPO BKN012

Heure: 16:31 (15:31 UTC)

Prévision

Le bulletin a été fait il y a 1 heure et 31 minutes, à 14:00 UTC
Prévision valable du 21 à 15 UTC au 21 à 24 UTC
Vent 8 kt de ouest/nord-ouest
Visibilité 10 km ou plus
Nuages épars à une hauteur de 1100 ft
Ciel couvert à une hauteur de 3000 ft
Probabilité 30% :
Temporairement
du 21 à 15 UTC au 21 à 24 UTC
Nuages fragmentés à une hauteur de 1200 ft

TAF: LFBA 211400Z 2115/2124 30008KT 9999 SCT011 OVC030 PROB30 TEMPO 2115/2124 BKN012

Observations et prévisions météorologiques de plus de 4000 aéroports (messages METAR et TAF).

Les stations disponibles sont représentées par des disques jaunes et rouges sur la carte.

Passer la souris dessus pour voir le nom de la station.

Cliquer dessus pour voir les observations et prévisions météorologiques.

Pour changer de carte: cliquez sur les boutons verts avec une croix noire pour zoomer, sur le bouton vert avec un tiret pour effectuer un zoom arrière, ou sur les flèches vertes pour les cartes adjacentes.


METAR-TAF: